Aérodrome :
LOGIN :

S'inscrire | Disclaimer

   EN    FR    IT 

 










Légende :    VFR   VFR Marginal   IFR   IFR Intensif   IFR Très Intensif
Visi : 
Plafond : 
>= 8 km
>= 3000ft
5 à 8 km
1000 à 3000 ft
1500m à 5 km
500 à 1000 ft
800 à 1500m
200 à 500 ft
< 800m
< 200 ft
Symboles :   Orages  Brouillard  Fortes neiges  Fortes précipitations  Vent > 20 kt
SIGMETs :   Divers  Orages  Givrage  Turbulence  Onde Orograph.  Cendres Volcan.







- Altitude de l'aérodrome : 375 ft
- Code IATA : MST


EHBK - Maastricht Aachen

DERNIER METAR :
  • 241225Z AUTO 25005KT 210V310 9999 BKN021 BKN024 OVC028 08/07 Q1011 NOSIG

METARs EXPIRÉS :
  • 241155Z AUTO 25007KT 210V280 9999 FEW007 SCT009 BKN010 08/07 Q1011 NOSIG
  • 241125Z AUTO 25005KT 210V290 9000 SCT007 BKN008 OVC009 08/07 Q1011 NOSIG
  • 241055Z AUTO 25006KT 210V290 9999 FEW003 SCT005 BKN007 08/07 Q1010 NOSIG
  • 241025Z AUTO 24005KT 9999 FEW005 OVC046 08/07 Q1010 BECMG NSW
  • 240955Z AUTO 26004KT 210V310 9999 BKN022 BKN036 BKN042 07/07 Q1010 REDZ BECMG NSW

TAF TAF EHBK
Valide du 24 à 12h jusqu'au 25 à 18h UTC


241118Z 2412/2518 24007KT 9999 BKN008
BECMG 2412/2415 SCT020
BECMG 2422/2501 6000 RA BKN012 FEW020CB
TEMPO 2500/2507 3000 DZRA BR BKN007
PROB40 2503/2506 2000 BR BKN004
BECMG 2509/2512 9999 NSW SCT015
PROB30
TEMPO 2513/2517 6000 SHRA SCT015CB
Pas de NOTAMs connus pour ce terrain.



MET'MAP, la Météo Aéronautique d'un coup d'oeil ! - Copyright ORBIFLY Décembre 2007 - Disclaimer

ORBIFLY MET'MAP TEAM :

Programmation & Développement : Alexandra Zaïnal
Conception & Développement : Baudouin d'Aumeries
Co-Programmation & Développement : Marc-Olivier Méhu
Soutien technique & logistique : Manuel Goepfert

Contact : metmap@orbifly.com




SOURCES & CREDITS :

   NOAA